createdAt,value
2023-01-19T00:00:43.236Z,80.88
2023-01-19T00:03:15.860Z,81.17
2023-01-19T00:05:44.162Z,81.18
2023-01-19T00:08:18.688Z,81.02
2023-01-19T00:10:49.292Z,81.06
2023-01-19T00:13:18.433Z,80.90
2023-01-19T00:15:46.576Z,81.26
2023-01-19T00:18:14.484Z,80.57
2023-01-19T00:20:43.092Z,80.73
2023-01-19T00:23:10.862Z,80.67
2023-01-19T00:25:42.424Z,80.75
2023-01-19T00:28:10.626Z,80.62
2023-01-19T00:30:41.368Z,81.12
2023-01-19T00:33:09.598Z,81.26
2023-01-19T00:35:37.815Z,81.56
2023-01-19T00:38:05.574Z,81.92
2023-01-19T00:40:33.331Z,82.37
2023-01-19T00:43:00.627Z,82.47
2023-01-19T00:45:28.749Z,83.31
2023-01-19T00:47:57.990Z,83.41
2023-01-19T00:50:26.702Z,83.49
2023-01-19T00:52:55.837Z,82.85
2023-01-19T00:55:24.218Z,83.09
2023-01-19T00:57:52.036Z,83.12
2023-01-19T01:00:21.167Z,82.72
2023-01-19T01:02:50.575Z,82.96
2023-01-19T01:05:21.193Z,83.31
2023-01-19T01:07:49.853Z,82.89
2023-01-19T01:10:19.986Z,83.36
2023-01-19T01:12:57.354Z,83.18
2023-01-19T01:15:27.743Z,83.25
2023-01-19T01:17:55.610Z,83.07
2023-01-19T01:20:28.600Z,83.70
2023-01-19T01:22:57.637Z,83.92
2023-01-19T01:25:28.379Z,83.82
2023-01-19T01:27:56.218Z,84.32
2023-01-19T01:30:24.727Z,84.33
2023-01-19T01:32:52.470Z,84.13
2023-01-19T01:35:20.316Z,84.00
2023-01-19T01:37:49.313Z,84.02
2023-01-19T01:40:18.938Z,83.80
2023-01-19T01:42:46.684Z,83.89
2023-01-19T01:45:31.064Z,83.57
2023-01-19T01:48:02.843Z,83.15
2023-01-19T01:50:34.058Z,82.48
2023-01-19T01:53:08.183Z,82.19
2023-01-19T01:55:39.002Z,81.62
2023-01-19T01:58:08.337Z,81.11
2023-01-19T02:00:50.140Z,80.77
2023-01-19T02:03:17.950Z,80.22
2023-01-19T02:05:46.735Z,80.25
2023-01-19T02:08:38.135Z,80.45
2023-01-19T02:11:24.276Z,79.77
2023-01-19T02:13:52.347Z,79.76
2023-01-19T02:16:20.320Z,79.84
2023-01-19T02:18:48.143Z,79.65
2023-01-19T02:21:22.056Z,79.75
2023-01-19T02:23:53.395Z,79.25
2023-01-19T02:26:23.254Z,79.52
2023-01-19T02:28:54.337Z,78.89
2023-01-19T02:31:22.015Z,79.04
2023-01-19T02:33:50.193Z,79.16
2023-01-19T02:36:22.031Z,78.76
2023-01-19T02:38:53.331Z,78.91
2023-01-19T02:41:24.980Z,78.65
2023-01-19T02:43:54.571Z,78.42
2023-01-19T02:46:22.368Z,78.55
2023-01-19T02:48:50.034Z,78.08
2023-01-19T02:51:22.166Z,78.78
2023-01-19T02:54:23.829Z,78.11
2023-01-19T02:57:07.273Z,77.90
2023-01-19T02:59:49.322Z,77.70
2023-01-19T03:02:29.628Z,78.06
2023-01-19T03:05:11.042Z,77.81
2023-01-19T03:07:50.342Z,77.69
2023-01-19T03:10:30.487Z,77.99
2023-01-19T03:13:03.976Z,78.45
2023-01-19T03:15:38.371Z,78.32
2023-01-19T03:18:09.295Z,78.15
2023-01-19T03:20:38.761Z,78.28
2023-01-19T03:23:09.474Z,78.49
2023-01-19T03:25:42.627Z,77.99
2023-01-19T03:28:10.861Z,78.27
2023-01-19T03:30:45.870Z,78.15
2023-01-19T03:33:18.299Z,77.87
2023-01-19T03:35:51.466Z,78.10
2023-01-19T03:38:26.126Z,78.28
2023-01-19T03:40:59.661Z,78.09
2023-01-19T03:43:29.429Z,78.10
2023-01-19T03:45:58.054Z,77.84
2023-01-19T03:48:26.465Z,77.59
2023-01-19T03:50:54.203Z,77.85
2023-01-19T03:53:22.804Z,77.62
2023-01-19T03:55:54.129Z,77.65
2023-01-19T03:58:23.230Z,77.99
2023-01-19T04:00:50.944Z,77.51
2023-01-19T04:03:19.705Z,77.30
2023-01-19T04:05:47.423Z,77.90
2023-01-19T04:08:15.198Z,77.52
2023-01-19T04:10:42.954Z,77.38
2023-01-19T04:13:10.556Z,77.58
2023-01-19T04:15:39.793Z,77.75
2023-01-19T04:18:07.487Z,77.44
2023-01-19T04:20:35.151Z,77.36
2023-01-19T04:23:03.200Z,77.32
2023-01-19T04:25:31.103Z,77.30
2023-01-19T04:27:58.945Z,77.48
2023-01-19T04:30:28.070Z,76.96
2023-01-19T04:32:59.948Z,77.38
2023-01-19T04:35:28.599Z,77.28
2023-01-19T04:37:56.319Z,77.37
2023-01-19T04:40:24.475Z,76.78
2023-01-19T04:42:52.124Z,77.05
2023-01-19T04:45:19.787Z,76.66
2023-01-19T04:47:47.404Z,76.85
2023-01-19T04:50:17.563Z,76.18
2023-01-19T04:52:45.251Z,76.62
2023-01-19T04:55:12.932Z,76.67
2023-01-19T04:57:40.631Z,76.50
2023-01-19T05:00:09.936Z,76.76
2023-01-19T05:02:38.126Z,77.04
2023-01-19T05:05:06.462Z,76.96
2023-01-19T05:07:35.505Z,76.19
2023-01-19T05:10:03.240Z,76.45
2023-01-19T05:12:30.987Z,76.27
2023-01-19T05:14:58.668Z,76.98
2023-01-19T05:17:26.410Z,76.41
2023-01-19T05:19:54.110Z,76.56
2023-01-19T05:22:21.737Z,76.15
2023-01-19T05:24:50.822Z,76.25
2023-01-19T05:27:18.569Z,76.43
2023-01-19T05:29:46.247Z,76.38
2023-01-19T05:32:14.287Z,76.02
2023-01-19T05:34:41.946Z,76.10
2023-01-19T05:37:09.616Z,76.13
2023-01-19T05:39:37.354Z,75.97
2023-01-19T05:42:06.844Z,76.09
2023-01-19T05:44:34.509Z,76.08
2023-01-19T05:47:02.141Z,75.93
2023-01-19T05:49:30.070Z,76.42
2023-01-19T05:51:57.767Z,76.04
2023-01-19T05:54:25.459Z,76.35
2023-01-19T05:56:53.155Z,76.50
2023-01-19T05:59:24.159Z,76.68
2023-01-19T06:01:52.168Z,77.46
2023-01-19T06:04:20.629Z,78.05
2023-01-19T06:06:48.905Z,78.05
2023-01-19T06:09:17.333Z,77.95
2023-01-19T06:11:45.483Z,78.43
2023-01-19T06:14:13.619Z,78.55
2023-01-19T06:16:42.740Z,78.57
2023-01-19T06:19:10.612Z,78.76
2023-01-19T06:21:38.320Z,79.19
2023-01-19T06:24:06.876Z,79.59
2023-01-19T06:26:34.572Z,80.18
2023-01-19T06:29:02.207Z,80.25
2023-01-19T06:31:29.950Z,79.91
2023-01-19T06:33:59.170Z,80.86
2023-01-19T06:36:26.935Z,80.58
2023-01-19T06:38:54.621Z,81.25
2023-01-19T06:41:22.250Z,81.33
2023-01-19T06:43:49.943Z,81.59
2023-01-19T06:46:17.670Z,81.83
2023-01-19T06:48:45.345Z,82.16
2023-01-19T06:51:14.549Z,82.30
2023-01-19T06:53:42.168Z,82.42
2023-01-19T06:56:10.343Z,82.80
2023-01-19T06:58:38.078Z,82.75
2023-01-19T07:01:06.973Z,83.03
2023-01-19T07:03:36.679Z,83.34
2023-01-19T07:06:06.520Z,83.26
2023-01-19T07:08:36.892Z,83.69
2023-01-19T07:11:25.749Z,84.23
2023-01-19T07:13:55.763Z,84.81
2023-01-19T07:16:24.195Z,84.61
2023-01-19T07:18:52.398Z,85.06
2023-01-19T07:21:20.117Z,85.04
2023-01-19T07:23:51.188Z,85.80
2023-01-19T07:26:21.112Z,85.35
2023-01-19T07:28:49.044Z,86.11
2023-01-19T07:31:17.797Z,85.93
2023-01-19T07:33:45.599Z,86.46
2023-01-19T07:36:14.709Z,86.85
2023-01-19T07:38:42.416Z,86.85
2023-01-19T07:41:11.744Z,86.91
2023-01-19T07:43:39.445Z,86.70
2023-01-19T07:46:08.135Z,86.36
2023-01-19T07:48:35.907Z,86.34
2023-01-19T07:51:10.466Z,86.76
2023-01-19T07:53:41.651Z,86.93
2023-01-19T07:56:11.145Z,87.10
2023-01-19T07:58:38.906Z,86.79
2023-01-19T08:01:08.265Z,86.53
2023-01-19T08:03:36.105Z,86.16
2023-01-19T08:06:05.045Z,86.63
2023-01-19T08:08:33.451Z,86.87
2023-01-19T08:11:01.396Z,86.62
2023-01-19T08:13:30.416Z,86.48
2023-01-19T08:15:58.133Z,86.40
2023-01-19T08:18:25.790Z,86.90
2023-01-19T08:20:53.448Z,87.02
2023-01-19T08:23:21.119Z,87.00
2023-01-19T08:25:48.832Z,86.67
2023-01-19T08:28:17.801Z,86.75
2023-01-19T08:30:53.791Z,86.45
2023-01-19T08:33:21.791Z,86.93
2023-01-19T08:35:51.392Z,86.48
2023-01-19T08:38:19.519Z,86.39
2023-01-19T08:40:47.227Z,85.80
2023-01-19T08:43:16.570Z,86.08
2023-01-19T08:45:52.156Z,85.66
2023-01-19T08:48:24.036Z,86.00
2023-01-19T08:50:53.259Z,86.02
2023-01-19T08:53:23.437Z,85.69
2023-01-19T08:55:54.971Z,85.44
2023-01-19T08:58:22.610Z,85.88
2023-01-19T09:00:52.475Z,85.52
2023-01-19T09:03:22.506Z,85.53
2023-01-19T09:05:50.725Z,85.07
2023-01-19T09:08:18.360Z,84.86
2023-01-19T09:10:48.437Z,85.01
2023-01-19T09:13:17.227Z,84.79
2023-01-19T09:15:45.298Z,85.11
2023-01-19T09:18:16.772Z,84.44
2023-01-19T09:20:45.711Z,84.19
2023-01-19T09:23:15.219Z,84.63
2023-01-19T09:25:46.936Z,84.48
2023-01-19T09:28:16.251Z,84.26
2023-01-19T09:30:45.393Z,83.90
2023-01-19T09:33:17.079Z,83.73
2023-01-19T09:35:46.367Z,83.61
2023-01-19T09:38:15.221Z,83.13
2023-01-19T09:40:45.038Z,83.24
2023-01-19T09:43:22.591Z,83.46
2023-01-19T09:45:55.272Z,83.69
2023-01-19T09:48:34.138Z,83.26
2023-01-19T09:51:05.749Z,83.23
2023-01-19T09:53:50.489Z,82.92
2023-01-19T09:56:21.069Z,83.11
2023-01-19T09:58:50.356Z,83.00
2023-01-19T10:01:31.222Z,82.55
2023-01-19T10:04:23.121Z,82.25
2023-01-19T10:06:52.830Z,81.86
2023-01-19T10:09:29.770Z,82.43
2023-01-19T10:12:05.585Z,82.51
2023-01-19T10:14:41.064Z,83.01
2023-01-19T10:17:22.317Z,83.54
2023-01-19T10:19:56.280Z,83.17
2023-01-19T10:22:26.415Z,83.07
2023-01-19T10:24:57.225Z,83.39
2023-01-19T10:27:28.218Z,83.36
2023-01-19T10:29:56.613Z,83.55
2023-01-19T10:32:26.021Z,83.61
2023-01-19T10:34:57.992Z,83.90
2023-01-19T10:37:31.586Z,83.84
2023-01-19T10:40:08.817Z,84.15
2023-01-19T10:42:37.624Z,83.82
2023-01-19T10:45:15.631Z,83.70
2023-01-19T10:47:44.894Z,83.64
2023-01-19T10:50:30.650Z,82.97
2023-01-19T10:53:00.976Z,83.03
2023-01-19T10:55:31.315Z,82.99
2023-01-19T10:58:00.326Z,82.49
2023-01-19T11:00:34.643Z,82.56
2023-01-19T11:03:03.259Z,83.00
2023-01-19T11:05:34.201Z,83.18
2023-01-19T11:08:01.984Z,82.86
2023-01-19T11:10:30.872Z,81.77
2023-01-19T11:13:02.961Z,82.40
2023-01-19T11:15:34.713Z,82.29
2023-01-19T11:18:04.493Z,82.54
2023-01-19T11:20:44.023Z,82.10
2023-01-19T11:23:23.335Z,81.96
2023-01-19T11:25:52.947Z,81.95
2023-01-19T11:28:27.181Z,82.24
2023-01-19T11:30:56.837Z,81.93
2023-01-19T11:33:25.724Z,81.52
2023-01-19T11:36:03.434Z,81.83
2023-01-19T11:38:31.121Z,81.55
2023-01-19T11:41:00.779Z,81.53
2023-01-19T11:43:47.459Z,80.88
2023-01-19T11:46:17.287Z,80.53
2023-01-19T11:48:50.754Z,80.00
2023-01-19T11:51:22.667Z,79.64
2023-01-19T11:53:53.239Z,79.61
2023-01-19T11:56:24.452Z,79.71
2023-01-19T11:58:52.436Z,80.08
2023-01-19T12:01:24.732Z,79.52
2023-01-19T12:03:57.804Z,79.38
2023-01-19T12:06:32.066Z,80.33
2023-01-19T12:09:04.382Z,80.11
2023-01-19T12:11:36.271Z,80.28
2023-01-19T12:14:05.310Z,80.73
2023-01-19T12:16:35.454Z,80.63
2023-01-19T12:19:06.330Z,80.84
2023-01-19T12:21:35.524Z,80.68
2023-01-19T12:24:16.004Z,80.76
2023-01-19T12:26:51.664Z,80.89
2023-01-19T12:29:22.757Z,81.55
2023-01-19T12:32:17.868Z,82.04
2023-01-19T12:34:47.335Z,82.80
2023-01-19T12:37:38.740Z,83.19
2023-01-19T12:40:22.914Z,83.83
2023-01-19T12:42:59.315Z,84.24
2023-01-19T12:45:32.067Z,83.76
2023-01-19T12:48:01.784Z,83.66
2023-01-19T12:50:35.035Z,83.81
2023-01-19T12:53:08.209Z,84.14
2023-01-19T12:55:37.893Z,84.28
2023-01-19T12:58:08.707Z,84.23
2023-01-19T13:00:39.655Z,84.85
2023-01-19T13:03:37.070Z,84.64
2023-01-19T13:06:04.843Z,84.32
2023-01-19T13:09:05.099Z,84.25
2023-01-19T13:11:34.781Z,83.97
2023-01-19T13:14:34.889Z,84.11
2023-01-19T13:17:20.706Z,83.59
2023-01-19T13:19:54.788Z,82.76
2023-01-19T13:23:14.859Z,82.58
2023-01-19T13:25:49.747Z,82.91
2023-01-19T13:28:19.343Z,82.40
2023-01-19T13:30:56.768Z,82.52
2023-01-19T13:33:27.477Z,83.22
2023-01-19T13:35:58.732Z,83.26
2023-01-19T13:38:28.746Z,83.36
2023-01-19T13:41:01.365Z,83.28
2023-01-19T13:43:33.672Z,83.54
2023-01-19T13:46:02.034Z,83.89
2023-01-19T13:48:32.134Z,83.90
2023-01-19T13:51:03.960Z,84.00
2023-01-19T13:53:32.397Z,84.56
2023-01-19T13:56:18.264Z,84.17
2023-01-19T13:59:02.260Z,84.18
2023-01-19T14:01:32.094Z,83.84
2023-01-19T14:04:00.638Z,84.12
2023-01-19T14:06:40.055Z,84.19
2023-01-19T14:09:09.662Z,84.25
2023-01-19T14:11:39.408Z,83.88
2023-01-19T14:14:23.254Z,84.25
2023-01-19T14:16:51.251Z,84.19
2023-01-19T14:19:18.923Z,83.83
2023-01-19T14:21:46.651Z,83.75
2023-01-19T14:24:19.406Z,83.97
2023-01-19T14:26:51.329Z,84.24
2023-01-19T14:29:24.160Z,84.97
2023-01-19T14:31:53.662Z,85.43
2023-01-19T14:34:32.130Z,86.08
2023-01-19T14:37:00.744Z,85.74
2023-01-19T14:39:30.778Z,86.11
2023-01-19T14:42:03.044Z,86.40
2023-01-19T14:44:34.795Z,86.96
2023-01-19T14:47:03.178Z,87.07
2023-01-19T14:49:36.428Z,87.53
2023-01-19T14:52:08.362Z,87.59
2023-01-19T14:54:39.170Z,87.25
2023-01-19T14:57:13.052Z,87.74
2023-01-19T14:59:41.277Z,87.81
2023-01-19T15:02:09.948Z,88.10
2023-01-19T15:04:37.703Z,88.74
2023-01-19T15:07:05.753Z,88.64
2023-01-19T15:09:33.555Z,89.11
2023-01-19T15:12:02.211Z,89.63
2023-01-19T15:14:31.398Z,89.60
2023-01-19T15:16:59.155Z,90.17
2023-01-19T15:19:26.817Z,89.50
2023-01-19T15:21:54.481Z,89.64
2023-01-19T15:24:22.773Z,89.48
2023-01-19T15:26:50.463Z,88.99
2023-01-19T15:29:23.715Z,88.53
2023-01-19T15:31:53.570Z,88.48
2023-01-19T15:34:21.264Z,88.05
2023-01-19T15:36:49.045Z,87.97
2023-01-19T15:39:16.673Z,88.26
2023-01-19T15:41:44.556Z,87.52
2023-01-19T15:44:12.270Z,87.02
2023-01-19T15:46:39.949Z,86.18
2023-01-19T15:49:08.937Z,85.99
2023-01-19T15:51:36.655Z,85.89
2023-01-19T15:54:04.601Z,86.01
2023-01-19T15:56:32.644Z,86.11
2023-01-19T15:59:00.672Z,85.28
2023-01-19T16:01:31.944Z,85.39
2023-01-19T16:04:01.439Z,85.38
2023-01-19T16:06:30.860Z,85.45
2023-01-19T16:09:01.129Z,85.36
2023-01-19T16:11:30.877Z,85.83
2023-01-19T16:13:59.228Z,85.32
2023-01-19T16:16:27.900Z,84.97
2023-01-19T16:18:56.153Z,84.58
2023-01-19T16:21:24.188Z,84.93
2023-01-19T16:23:53.461Z,84.85
2023-01-19T16:26:30.122Z,85.05
2023-01-19T16:28:59.406Z,84.92
2023-01-19T16:31:27.517Z,84.76
2023-01-19T16:33:55.484Z,84.62
2023-01-19T16:36:26.315Z,84.45
2023-01-19T16:38:55.725Z,84.04
2023-01-19T16:41:23.398Z,84.07
2023-01-19T16:43:52.825Z,83.76
2023-01-19T16:46:25.164Z,83.98
2023-01-19T16:48:53.769Z,84.25
2023-01-19T16:51:21.429Z,84.40
2023-01-19T16:53:51.693Z,84.29
2023-01-19T16:56:20.777Z,84.94
2023-01-19T16:59:03.489Z,85.22
2023-01-19T17:01:31.533Z,85.82
2023-01-19T17:03:59.306Z,86.16
2023-01-19T17:06:28.046Z,86.54
2023-01-19T17:08:55.822Z,86.96
2023-01-19T17:11:26.958Z,87.88
2023-01-19T17:13:56.746Z,87.73
2023-01-19T17:16:25.929Z,88.43
2023-01-19T17:18:53.735Z,88.92
2023-01-19T17:21:21.469Z,88.08
2023-01-19T17:23:51.569Z,88.28
2023-01-19T17:26:19.462Z,88.03
2023-01-19T17:28:48.704Z,87.89
2023-01-19T17:31:19.608Z,87.55
2023-01-19T17:33:48.757Z,88.07
2023-01-19T17:36:20.400Z,87.76
2023-01-19T17:38:48.116Z,87.95
2023-01-19T17:41:17.051Z,88.27
2023-01-19T17:43:45.467Z,88.18
2023-01-19T17:46:14.878Z,88.08
2023-01-19T17:48:42.570Z,88.23
2023-01-19T17:51:13.879Z,87.47
2023-01-19T17:53:42.727Z,87.23
2023-01-19T17:56:12.292Z,87.26
2023-01-19T17:58:41.181Z,87.11
2023-01-19T18:01:10.606Z,86.68
2023-01-19T18:03:39.925Z,86.67
2023-01-19T18:06:08.752Z,86.78
2023-01-19T18:08:39.527Z,86.66
2023-01-19T18:11:07.584Z,86.88
2023-01-19T18:13:35.487Z,86.65
2023-01-19T18:16:06.041Z,87.08
2023-01-19T18:18:34.805Z,87.29
2023-01-19T18:21:06.320Z,87.74
2023-01-19T18:23:34.559Z,88.34
2023-01-19T18:26:04.758Z,88.21
2023-01-19T18:28:33.139Z,88.45
2023-01-19T18:31:00.999Z,88.43
2023-01-19T18:33:31.299Z,88.96
2023-01-19T18:35:58.955Z,88.78
2023-01-19T18:38:28.001Z,88.82
2023-01-19T18:41:02.839Z,88.53
2023-01-19T18:43:30.506Z,88.43
2023-01-19T18:45:58.367Z,88.42
2023-01-19T18:48:26.125Z,88.36
2023-01-19T18:50:54.542Z,88.06
2023-01-19T18:53:23.148Z,87.98
2023-01-19T18:55:53.100Z,87.83
2023-01-19T18:58:21.437Z,87.68
2023-01-19T19:00:50.375Z,87.55
2023-01-19T19:03:18.670Z,87.35
2023-01-19T19:06:11.655Z,87.26
2023-01-19T19:08:39.789Z,86.93
2023-01-19T19:11:09.546Z,86.53
2023-01-19T19:13:37.533Z,86.44
2023-01-19T19:16:06.075Z,86.46
2023-01-19T19:18:35.491Z,85.89
2023-01-19T19:21:05.963Z,85.25
2023-01-19T19:23:33.693Z,85.40
2023-01-19T19:26:05.297Z,84.70
2023-01-19T19:28:36.461Z,84.64
2023-01-19T19:31:08.975Z,84.66
2023-01-19T19:33:37.727Z,84.96
2023-01-19T19:36:06.747Z,84.68
2023-01-19T19:38:36.664Z,84.32
2023-01-19T19:41:06.810Z,83.77
2023-01-19T19:43:36.711Z,83.94
2023-01-19T19:46:06.581Z,83.76
2023-01-19T19:48:36.672Z,83.33
2023-01-19T19:51:17.586Z,83.32
2023-01-19T19:53:46.772Z,83.59
2023-01-19T19:56:14.738Z,82.50
2023-01-19T19:58:44.086Z,82.98
2023-01-19T20:01:14.021Z,82.84
2023-01-19T20:03:41.888Z,82.72
2023-01-19T20:06:11.926Z,83.01
2023-01-19T20:08:39.987Z,82.49
2023-01-19T20:11:09.079Z,81.90
2023-01-19T20:13:38.452Z,82.16
2023-01-19T20:16:11.453Z,81.97
2023-01-19T20:18:40.427Z,82.36
2023-01-19T20:21:12.633Z,81.81
2023-01-19T20:23:40.588Z,81.66
2023-01-19T20:26:09.174Z,81.94
2023-01-19T20:28:37.205Z,81.41
2023-01-19T20:31:14.795Z,81.89
2023-01-19T20:33:43.670Z,81.75
2023-01-19T20:36:14.631Z,81.57
2023-01-19T20:38:43.239Z,81.47
2023-01-19T20:41:13.218Z,81.34
2023-01-19T20:43:41.073Z,81.04
2023-01-19T20:46:09.063Z,81.25
2023-01-19T20:48:39.092Z,81.11
2023-01-19T20:51:09.069Z,80.84
2023-01-19T20:53:37.656Z,80.70
2023-01-19T20:56:06.225Z,80.66
2023-01-19T20:58:34.404Z,80.55
2023-01-19T21:01:10.571Z,81.51
2023-01-19T21:03:39.887Z,80.86
2023-01-19T21:06:08.163Z,81.06
2023-01-19T21:08:36.064Z,81.00
2023-01-19T21:11:04.209Z,81.03
2023-01-19T21:13:32.121Z,81.47
2023-01-19T21:15:59.922Z,81.77
2023-01-19T21:18:28.073Z,81.61
2023-01-19T21:20:58.087Z,82.07
2023-01-19T21:23:26.475Z,82.03
2023-01-19T21:25:55.749Z,81.59
2023-01-19T21:28:24.067Z,81.37
2023-01-19T21:30:53.492Z,82.01
2023-01-19T21:33:22.060Z,81.59
2023-01-19T21:35:53.974Z,81.86
2023-01-19T21:38:23.764Z,82.48
2023-01-19T21:40:51.660Z,82.79
2023-01-19T21:43:19.908Z,83.04
2023-01-19T21:45:48.730Z,83.32
2023-01-19T21:48:16.535Z,83.12
2023-01-19T21:50:44.230Z,83.69
2023-01-19T21:53:12.526Z,83.48
2023-01-19T21:55:44.721Z,84.24
2023-01-19T21:58:12.496Z,83.57
2023-01-19T22:00:40.846Z,83.11
2023-01-19T22:03:08.593Z,82.91
2023-01-19T22:05:37.031Z,82.90
2023-01-19T22:08:05.161Z,82.72
2023-01-19T22:10:35.720Z,82.57
2023-01-19T22:13:06.515Z,82.32
2023-01-19T22:15:34.302Z,82.39
2023-01-19T22:18:01.986Z,82.53
2023-01-19T22:20:29.664Z,82.28
2023-01-19T22:22:57.841Z,82.07
2023-01-19T22:25:27.688Z,82.11
2023-01-19T22:27:55.475Z,82.14
2023-01-19T22:30:24.573Z,82.13
2023-01-19T22:32:53.037Z,81.83
2023-01-19T22:35:21.182Z,81.80
2023-01-19T22:37:48.997Z,81.69
2023-01-19T22:40:17.268Z,81.66
2023-01-19T22:42:46.758Z,81.77
2023-01-19T22:45:15.213Z,81.68
2023-01-19T22:47:44.601Z,81.13
2023-01-19T22:50:12.614Z,81.48
2023-01-19T22:52:40.477Z,81.04
2023-01-19T22:55:08.668Z,81.12
2023-01-19T22:57:36.585Z,81.12
2023-01-19T23:00:08.583Z,81.50
2023-01-19T23:02:36.336Z,80.58
2023-01-19T23:05:06.066Z,80.94
2023-01-19T23:07:33.744Z,80.87
2023-01-19T23:10:01.399Z,80.85
2023-01-19T23:12:29.086Z,80.70
2023-01-19T23:14:56.736Z,80.47
2023-01-19T23:17:24.655Z,80.52
2023-01-19T23:19:52.361Z,80.27
2023-01-19T23:22:21.409Z,80.83
2023-01-19T23:24:49.057Z,80.87
2023-01-19T23:27:16.706Z,80.52
2023-01-19T23:29:44.384Z,80.42
2023-01-19T23:32:12.140Z,80.56
2023-01-19T23:34:39.922Z,80.47
2023-01-19T23:37:07.571Z,80.26
2023-01-19T23:39:36.580Z,80.29
2023-01-19T23:42:05.027Z,80.42
2023-01-19T23:44:32.661Z,80.22
2023-01-19T23:47:00.374Z,80.25
2023-01-19T23:49:28.385Z,79.71
2023-01-19T23:51:56.023Z,79.75
2023-01-19T23:54:23.673Z,79.44
2023-01-19T23:56:52.759Z,80.01
2023-01-19T23:59:20.396Z,79.90
